createdAt,value
2019-03-25T00:02:06.563Z,101387.70
2019-03-25T00:04:38.287Z,101380.03
2019-03-25T00:07:09.971Z,101379.54
2019-03-25T00:09:42.690Z,101377.59
2019-03-25T00:12:14.504Z,101381.52
2019-03-25T00:14:46.235Z,101376.17
2019-03-25T00:17:18.082Z,101374.76
2019-03-25T00:19:49.778Z,101373.63
2019-03-25T00:22:21.552Z,101366.23
2019-03-25T00:24:53.263Z,101367.59
2019-03-25T00:27:24.953Z,101366.03
2019-03-25T00:29:56.691Z,101358.08
2019-03-25T00:32:28.371Z,101348.30
2019-03-25T00:35:00.166Z,101348.61
2019-03-25T00:37:32.043Z,101350.58
2019-03-25T00:40:03.827Z,101345.91
2019-03-25T00:42:35.891Z,101346.07
2019-03-25T00:45:07.647Z,101339.22
2019-03-25T00:47:39.398Z,101337.15
2019-03-25T00:50:11.288Z,101324.76
2019-03-25T00:52:43.001Z,101319.05
2019-03-25T00:55:14.763Z,101328.50
2019-03-25T00:57:46.542Z,101320.41
2019-03-25T01:00:18.510Z,101321.61
2019-03-25T01:02:50.261Z,101316.16
2019-03-25T01:05:22.044Z,101328.57
2019-03-25T01:07:53.818Z,101307.73
2019-03-25T01:10:25.538Z,101306.06
2019-03-25T01:12:57.306Z,101302.42
2019-03-25T01:15:29.126Z,101298.67
2019-03-25T01:18:00.828Z,101286.70
2019-03-25T01:20:32.630Z,101285.95
2019-03-25T01:23:04.331Z,101286.75
2019-03-25T01:25:36.128Z,101279.47
2019-03-25T01:28:07.889Z,101281.05
2019-03-25T01:30:39.680Z,101281.32
2019-03-25T01:33:11.412Z,101278.22
2019-03-25T01:35:43.227Z,101279.09
2019-03-25T01:38:15.030Z,101274.30
2019-03-25T01:40:46.929Z,101262.95
2019-03-25T01:43:18.735Z,101259.53
2019-03-25T01:45:50.409Z,101271.80
2019-03-25T01:48:23.263Z,101248.71
2019-03-25T01:50:55.042Z,101247.52
2019-03-25T01:53:26.821Z,101245.55
2019-03-25T01:55:58.474Z,101227.68
2019-03-25T01:58:30.235Z,101230.94
2019-03-25T02:01:01.960Z,101215.28
2019-03-25T02:03:33.670Z,101215.50
2019-03-25T02:06:05.416Z,101208.48
2019-03-25T02:08:37.123Z,101209.26
2019-03-25T02:11:08.983Z,101202.63
2019-03-25T02:13:40.840Z,101186.86
2019-03-25T02:16:12.529Z,101182.95
2019-03-25T02:18:44.270Z,101184.42
2019-03-25T02:21:15.981Z,101180.25
2019-03-25T02:23:47.776Z,101169.70
2019-03-25T02:26:19.452Z,101158.94
2019-03-25T02:28:51.182Z,101158.47
2019-03-25T02:31:22.873Z,101152.00
2019-03-25T02:33:54.610Z,101156.95
2019-03-25T02:36:26.414Z,101147.38
2019-03-25T02:38:58.103Z,101143.64
2019-03-25T02:41:29.767Z,101143.65
2019-03-25T02:44:01.416Z,101139.63
2019-03-25T02:46:33.120Z,101137.19
2019-03-25T02:49:04.869Z,101149.57
2019-03-25T02:51:36.625Z,101122.64
2019-03-25T02:54:08.329Z,101128.02
2019-03-25T02:56:40.049Z,101128.94
2019-03-25T02:59:11.801Z,101117.48
2019-03-25T03:01:43.584Z,101115.42
2019-03-25T03:04:15.451Z,101100.59
2019-03-25T03:06:47.175Z,101114.40
2019-03-25T03:09:18.877Z,101096.05
2019-03-25T03:11:50.561Z,101085.52
2019-03-25T03:14:22.301Z,101083.44
2019-03-25T03:16:54.017Z,101069.99
2019-03-25T03:19:25.817Z,101062.06
2019-03-25T03:21:57.518Z,101057.50
2019-03-25T03:24:29.160Z,101060.70
2019-03-25T03:27:00.877Z,101052.23
2019-03-25T03:29:32.543Z,101047.66
2019-03-25T03:32:04.242Z,101044.75
2019-03-25T03:34:35.971Z,101036.27
2019-03-25T03:37:07.661Z,101035.61
2019-03-25T03:39:39.437Z,101023.71
2019-03-25T03:42:11.163Z,101018.83
2019-03-25T03:44:42.913Z,101006.47
2019-03-25T03:47:14.593Z,100995.06
2019-03-25T03:49:46.403Z,100995.31
2019-03-25T03:52:18.142Z,100990.70
2019-03-25T03:54:49.897Z,100983.13
2019-03-25T03:57:22.286Z,100990.25
2019-03-25T03:59:54.042Z,100975.14
2019-03-25T04:02:25.742Z,100968.34
2019-03-25T04:04:57.424Z,100970.95
2019-03-25T04:07:29.167Z,100958.41
2019-03-25T04:10:00.805Z,100964.15
2019-03-25T04:12:32.547Z,100969.86
2019-03-25T04:15:04.353Z,100958.93
2019-03-25T04:17:36.105Z,100956.72
2019-03-25T04:20:07.907Z,100947.97
2019-03-25T04:22:39.606Z,100951.39
2019-03-25T04:25:11.312Z,100945.27
2019-03-25T04:27:43.072Z,100955.97
2019-03-25T04:30:15.026Z,100955.65
2019-03-25T04:32:46.820Z,100951.00
2019-03-25T04:35:18.516Z,100945.05
2019-03-25T04:37:50.503Z,100957.58
2019-03-25T04:40:22.521Z,100940.48
2019-03-25T04:42:54.238Z,100942.91
2019-03-25T04:45:26.005Z,100939.39
2019-03-25T04:47:57.768Z,100953.58
2019-03-25T04:50:29.529Z,100940.96
2019-03-25T04:53:01.222Z,100939.66
2019-03-25T04:55:32.940Z,100943.52
2019-03-25T04:58:04.667Z,100910.66
2019-03-25T05:00:37.713Z,100909.41
2019-03-25T05:03:09.478Z,100894.22
2019-03-25T05:05:41.172Z,100895.41
2019-03-25T05:08:12.884Z,100896.60
2019-03-25T05:10:44.604Z,100908.80
2019-03-25T05:13:16.344Z,100900.62
2019-03-25T05:15:48.279Z,100914.54
2019-03-25T05:18:19.994Z,100916.73
2019-03-25T05:20:51.735Z,100911.13
2019-03-25T05:23:23.477Z,100912.05
2019-03-25T05:25:55.291Z,100937.54
2019-03-25T05:28:26.999Z,100919.75
2019-03-25T05:30:58.869Z,100913.52
2019-03-25T05:33:30.660Z,100910.64
2019-03-25T05:36:02.372Z,100911.13
2019-03-25T05:38:34.114Z,100905.93
2019-03-25T05:41:06.234Z,100904.14
2019-03-25T05:43:37.980Z,100908.92
2019-03-25T05:46:09.887Z,100899.65
2019-03-25T05:48:41.595Z,100908.26
2019-03-25T05:51:13.739Z,100897.74
2019-03-25T05:53:46.464Z,100893.56
2019-03-25T05:56:18.250Z,100898.61
2019-03-25T05:58:49.966Z,100897.91
2019-03-25T06:01:22.023Z,100901.66
2019-03-25T06:03:53.749Z,100910.91
2019-03-25T06:06:25.549Z,100914.34
2019-03-25T06:08:57.290Z,100915.65
2019-03-25T06:11:29.083Z,100911.09
2019-03-25T06:14:00.868Z,100915.63
2019-03-25T06:16:32.640Z,100910.16
2019-03-25T06:19:04.441Z,100921.28
2019-03-25T06:21:36.206Z,100918.68
2019-03-25T06:24:08.767Z,100918.13
2019-03-25T06:26:40.558Z,100921.10
2019-03-25T06:29:12.284Z,100920.55
2019-03-25T06:31:43.995Z,100929.08
2019-03-25T06:34:15.745Z,100910.69
2019-03-25T06:36:47.413Z,100916.03
2019-03-25T06:39:19.149Z,100907.14
2019-03-25T06:41:50.860Z,100909.08
2019-03-25T06:44:22.680Z,100911.37
2019-03-25T06:46:54.456Z,100911.63
2019-03-25T06:49:26.181Z,100917.59
2019-03-25T06:51:57.970Z,100910.91
2019-03-25T06:54:29.725Z,100915.41
2019-03-25T06:57:01.493Z,100911.13
2019-03-25T06:59:33.276Z,100917.74
2019-03-25T07:02:04.987Z,100913.17
2019-03-25T07:04:36.690Z,100923.42
2019-03-25T07:07:08.470Z,100921.03
2019-03-25T07:09:40.238Z,100914.77
2019-03-25T07:12:12.211Z,100920.69
2019-03-25T07:14:43.913Z,100936.57
2019-03-25T07:17:15.717Z,100935.20
2019-03-25T07:19:47.415Z,100934.12
2019-03-25T07:22:19.582Z,100933.98
2019-03-25T07:24:51.324Z,100928.59
2019-03-25T07:27:23.099Z,100931.66
2019-03-25T07:29:54.811Z,100934.73
2019-03-25T07:32:26.719Z,100948.89
2019-03-25T07:34:58.546Z,100956.92
2019-03-25T07:37:30.309Z,100954.28
2019-03-25T07:40:01.994Z,100964.54
2019-03-25T07:42:33.691Z,100965.24
2019-03-25T07:45:05.622Z,100968.09
2019-03-25T07:47:37.344Z,100961.78
2019-03-25T07:50:09.392Z,100957.70
2019-03-25T07:52:41.090Z,100965.45
2019-03-25T07:55:13.025Z,100969.19
2019-03-25T07:57:48.600Z,100977.85
2019-03-25T08:00:19.220Z,100964.52
2019-03-25T08:02:50.949Z,100958.63
2019-03-25T08:05:22.684Z,100961.16
2019-03-25T08:07:54.882Z,100966.83
2019-03-25T08:10:36.913Z,100987.62
2019-03-25T08:13:08.982Z,100976.41
2019-03-25T08:15:40.853Z,100976.52
2019-03-25T08:18:12.678Z,100983.43
2019-03-25T08:20:44.519Z,100983.04
2019-03-25T08:23:16.260Z,100983.14
2019-03-25T08:25:48.006Z,100983.24
2019-03-25T08:28:19.699Z,100988.99
2019-03-25T08:30:51.579Z,100993.89
2019-03-25T08:33:23.329Z,100993.32
2019-03-25T08:35:55.133Z,100988.20
2019-03-25T08:38:26.900Z,100984.14
2019-03-25T08:40:59.765Z,100990.48
2019-03-25T08:43:31.561Z,100999.30
2019-03-25T08:46:03.312Z,100983.69
2019-03-25T08:48:34.971Z,101013.23
2019-03-25T08:51:06.681Z,101003.52
2019-03-25T08:53:38.545Z,100998.21
2019-03-25T08:56:10.322Z,100994.92
2019-03-25T08:58:42.267Z,100987.29
2019-03-25T09:01:14.042Z,100992.81
2019-03-25T09:03:45.774Z,100985.94
2019-03-25T09:06:17.501Z,100989.86
2019-03-25T09:08:49.261Z,100988.80
2019-03-25T09:11:21.019Z,100987.10
2019-03-25T09:13:52.852Z,100991.12
2019-03-25T09:16:24.675Z,101000.70
2019-03-25T09:18:56.401Z,101002.34
2019-03-25T09:21:28.129Z,100995.22
2019-03-25T09:24:00.069Z,100997.30
2019-03-25T09:26:31.847Z,101014.23
2019-03-25T09:29:03.531Z,101003.18
2019-03-25T09:31:37.068Z,100982.06
2019-03-25T09:34:08.917Z,100989.80
2019-03-25T09:36:40.756Z,100984.27
2019-03-25T09:39:12.655Z,100992.13
2019-03-25T09:41:44.396Z,100996.86
2019-03-25T09:44:17.098Z,100984.88
2019-03-25T09:46:48.879Z,100993.97
2019-03-25T09:49:20.666Z,100990.63
2019-03-25T09:51:52.970Z,100988.14
2019-03-25T09:54:25.916Z,100980.68
2019-03-25T09:56:57.765Z,100989.94
2019-03-25T09:59:29.501Z,100984.21
2019-03-25T10:02:01.344Z,100988.23
2019-03-25T10:04:33.110Z,100981.30
2019-03-25T10:07:04.840Z,100986.09
2019-03-25T10:09:36.684Z,100982.79
2019-03-25T10:12:08.410Z,100994.66
2019-03-25T10:14:40.168Z,100987.11
2019-03-25T10:17:11.899Z,100997.78
2019-03-25T10:19:43.641Z,101002.47
2019-03-25T10:22:15.405Z,100999.65
2019-03-25T10:24:47.231Z,101011.43
2019-03-25T10:27:18.981Z,101007.91
2019-03-25T10:29:50.732Z,101016.74
2019-03-25T10:32:22.407Z,101012.53
2019-03-25T10:34:54.199Z,101014.13
2019-03-25T10:37:25.881Z,101009.29
2019-03-25T10:39:57.724Z,101022.89
2019-03-25T10:42:29.597Z,101034.14
2019-03-25T10:45:01.303Z,101032.60
2019-03-25T10:47:33.120Z,101019.14
2019-03-25T10:50:05.420Z,101009.89
2019-03-25T10:52:37.163Z,101018.61
2019-03-25T10:55:08.976Z,101010.28
2019-03-25T10:57:40.758Z,101014.62
2019-03-25T11:00:13.159Z,101028.52
2019-03-25T11:02:44.859Z,101013.94
2019-03-25T11:05:16.669Z,101014.84
2019-03-25T11:07:48.474Z,101018.28
2019-03-25T11:10:20.256Z,101015.86
2019-03-25T11:12:52.033Z,101022.58
2019-03-25T11:15:23.759Z,101001.66
2019-03-25T11:17:55.565Z,101010.52
2019-03-25T11:20:27.393Z,101014.97
2019-03-25T11:22:59.140Z,101004.59
2019-03-25T11:25:30.953Z,101009.01
2019-03-25T11:28:02.708Z,101007.40
2019-03-25T11:30:57.772Z,101009.01
2019-03-25T11:33:29.565Z,101012.63
2019-03-25T11:36:02.856Z,101004.19
2019-03-25T11:38:35.838Z,101011.54
2019-03-25T11:41:07.590Z,101009.27
2019-03-25T11:43:39.847Z,101024.34
2019-03-25T11:46:11.584Z,101016.29
2019-03-25T11:48:43.305Z,101017.60
2019-03-25T11:51:15.009Z,101012.06
2019-03-25T11:53:46.701Z,101002.70
2019-03-25T11:56:18.643Z,101001.02
2019-03-25T11:58:50.411Z,101002.00
2019-03-25T12:01:22.156Z,101004.38
2019-03-25T12:03:53.853Z,101008.32
2019-03-25T12:06:25.568Z,101004.88
2019-03-25T12:08:57.493Z,101004.09
2019-03-25T12:11:29.260Z,101026.34
2019-03-25T12:14:01.099Z,101010.33
2019-03-25T12:16:32.849Z,101026.41
2019-03-25T12:19:04.891Z,101021.36
2019-03-25T12:21:36.629Z,101023.44
2019-03-25T12:24:08.376Z,101024.53
2019-03-25T12:26:40.093Z,101025.19
2019-03-25T12:29:11.805Z,101024.14
2019-03-25T12:31:43.487Z,101024.00
2019-03-25T12:34:15.260Z,101017.07
2019-03-25T12:36:47.039Z,101017.97
2019-03-25T12:39:18.787Z,101031.15
2019-03-25T12:41:50.998Z,101034.26
2019-03-25T12:44:22.821Z,101031.38
2019-03-25T12:46:54.540Z,101028.55
2019-03-25T12:49:26.335Z,101035.80
2019-03-25T12:51:59.193Z,101029.30
2019-03-25T12:54:31.009Z,101030.16
2019-03-25T12:57:02.796Z,101030.02
2019-03-25T12:59:41.236Z,101032.42
2019-03-25T13:02:08.361Z,101036.30
2019-03-25T13:04:40.181Z,101041.86
2019-03-25T13:07:11.968Z,101031.64
2019-03-25T13:09:43.886Z,101037.58
2019-03-25T13:12:15.904Z,101044.89
2019-03-25T13:14:47.681Z,101043.08
2019-03-25T13:17:19.355Z,101048.61
2019-03-25T13:19:51.220Z,101049.63
2019-03-25T13:22:23.403Z,101044.42
2019-03-25T13:24:55.204Z,101058.07
2019-03-25T13:27:27.043Z,101067.35
2019-03-25T13:29:58.863Z,101088.61
2019-03-25T13:32:30.567Z,101099.26
2019-03-25T13:35:02.318Z,101096.14
2019-03-25T13:37:34.105Z,101102.37
2019-03-25T13:40:07.424Z,101122.30
2019-03-25T13:42:39.196Z,101120.20
2019-03-25T13:45:11.126Z,101116.89
2019-03-25T13:47:43.032Z,101124.86
2019-03-25T13:50:15.879Z,101117.63
2019-03-25T13:52:47.586Z,101117.50
2019-03-25T13:55:19.345Z,101122.02
2019-03-25T13:57:51.161Z,101120.27
2019-03-25T14:00:36.159Z,101118.86
2019-03-25T14:03:07.906Z,101122.58
2019-03-25T14:05:39.933Z,101117.98
2019-03-25T14:08:11.705Z,101117.41
2019-03-25T14:10:44.517Z,101125.34
2019-03-25T14:13:17.300Z,101123.12
2019-03-25T14:15:49.075Z,101121.95
2019-03-25T14:18:20.953Z,101133.28
2019-03-25T14:20:52.695Z,101124.59
2019-03-25T14:23:25.432Z,101135.00
2019-03-25T14:25:57.163Z,101132.38
2019-03-25T14:28:28.875Z,101130.39
2019-03-25T14:31:00.700Z,101138.90
2019-03-25T14:33:32.471Z,101158.83
2019-03-25T14:36:04.177Z,101153.04
2019-03-25T14:38:35.931Z,101161.36
2019-03-25T14:41:07.667Z,101167.12
2019-03-25T14:43:39.373Z,101164.88
2019-03-25T14:46:11.086Z,101160.32
2019-03-25T14:48:42.951Z,101164.05
2019-03-25T14:51:15.094Z,101170.79
2019-03-25T14:53:46.867Z,101172.47
2019-03-25T14:56:18.763Z,101171.78
2019-03-25T14:58:50.540Z,101179.61
2019-03-25T15:01:22.247Z,101176.05
2019-03-25T15:03:54.059Z,101184.50
2019-03-25T15:06:25.752Z,101195.47
2019-03-25T15:08:57.533Z,101206.29
2019-03-25T15:11:29.368Z,101195.55
2019-03-25T15:14:01.071Z,101198.73
2019-03-25T15:16:32.855Z,101208.33
2019-03-25T15:19:04.530Z,101215.20
2019-03-25T15:21:36.374Z,101212.16
2019-03-25T15:24:08.067Z,101225.02
2019-03-25T15:26:40.312Z,101217.98
2019-03-25T15:29:12.123Z,101217.09
2019-03-25T15:31:44.913Z,101214.45
2019-03-25T15:34:17.808Z,101225.07
2019-03-25T15:36:50.690Z,101232.09
2019-03-25T15:39:22.643Z,101234.80
2019-03-25T15:41:54.392Z,101243.64
2019-03-25T15:44:26.126Z,101240.19
2019-03-25T15:46:57.846Z,101238.99
2019-03-25T15:49:29.572Z,101237.55
2019-03-25T15:52:01.304Z,101244.04
2019-03-25T15:54:32.982Z,101242.11
2019-03-25T15:57:04.849Z,101245.30
2019-03-25T15:59:37.523Z,101247.50
2019-03-25T16:02:09.274Z,101255.77
2019-03-25T16:04:41.010Z,101267.66
2019-03-25T16:07:12.717Z,101284.13
2019-03-25T16:09:44.515Z,101288.18
2019-03-25T16:12:16.347Z,101291.06
2019-03-25T16:14:48.164Z,101306.46
2019-03-25T16:17:19.862Z,101322.34
2019-03-25T16:19:51.638Z,101327.05
2019-03-25T16:22:23.365Z,101330.15
2019-03-25T16:24:55.152Z,101340.09
2019-03-25T16:27:26.893Z,101336.56
2019-03-25T16:29:58.587Z,101342.08
2019-03-25T16:32:30.308Z,101337.87
2019-03-25T16:35:02.153Z,101347.27
2019-03-25T16:37:33.863Z,101348.23
2019-03-25T16:40:05.682Z,101351.87
2019-03-25T16:42:37.386Z,101351.93
2019-03-25T16:45:09.217Z,101355.45
2019-03-25T16:47:40.919Z,101362.09
2019-03-25T16:50:12.682Z,101366.52
2019-03-25T16:52:44.433Z,101372.44
2019-03-25T16:55:16.185Z,101379.80
2019-03-25T16:57:48.006Z,101386.19
2019-03-25T17:00:27.339Z,101389.70
2019-03-25T17:02:53.300Z,101397.79
2019-03-25T17:05:25.105Z,101398.73
2019-03-25T17:07:56.851Z,101407.30
2019-03-25T17:10:28.570Z,101411.11
2019-03-25T17:13:00.389Z,101418.95
2019-03-25T17:15:32.224Z,101421.30
2019-03-25T17:18:03.959Z,101428.12
2019-03-25T17:20:35.715Z,101423.98
2019-03-25T17:23:07.419Z,101435.61
2019-03-25T17:25:39.130Z,101448.23
2019-03-25T17:28:10.907Z,101451.48
2019-03-25T17:30:42.688Z,101462.27
2019-03-25T17:33:14.411Z,101475.59
2019-03-25T17:35:46.295Z,101479.02
2019-03-25T17:38:18.045Z,101484.44
2019-03-25T17:40:49.964Z,101495.63
2019-03-25T17:43:21.688Z,101495.53
2019-03-25T17:45:53.449Z,101501.95
2019-03-25T17:48:25.190Z,101510.50
2019-03-25T17:50:57.031Z,101516.91
2019-03-25T17:53:28.749Z,101524.38
2019-03-25T17:56:00.538Z,101531.52
2019-03-25T17:58:32.373Z,101539.17
2019-03-25T18:01:14.312Z,101544.76
2019-03-25T18:03:46.047Z,101548.28
2019-03-25T18:06:17.843Z,101555.80
2019-03-25T18:08:49.658Z,101558.50
2019-03-25T18:11:22.896Z,101558.16
2019-03-25T18:13:54.876Z,101559.83
2019-03-25T18:16:26.616Z,101564.66
2019-03-25T18:18:58.620Z,101570.17
2019-03-25T18:21:30.605Z,101583.03
2019-03-25T18:24:02.451Z,101578.79
2019-03-25T18:26:34.312Z,101586.72
2019-03-25T18:29:06.290Z,101581.02
2019-03-25T18:31:43.398Z,101595.67
2019-03-25T18:34:11.411Z,101602.42
2019-03-25T18:36:43.113Z,101607.83
2019-03-25T18:39:14.897Z,101612.31
2019-03-25T18:41:46.723Z,101614.72
2019-03-25T18:44:18.403Z,101620.90
2019-03-25T18:46:51.099Z,101624.50
2019-03-25T18:49:22.900Z,101627.53
2019-03-25T18:51:54.702Z,101631.62
2019-03-25T18:54:26.453Z,101642.92
2019-03-25T18:56:59.229Z,101644.17
2019-03-25T18:59:31.071Z,101646.42
2019-03-25T19:02:02.857Z,101648.16
2019-03-25T19:04:34.558Z,101655.14
2019-03-25T19:07:06.362Z,101657.70
2019-03-25T19:09:38.177Z,101668.59
2019-03-25T19:12:10.428Z,101678.67
2019-03-25T19:14:43.219Z,101677.52
2019-03-25T19:17:15.116Z,101677.68
2019-03-25T19:19:46.944Z,101686.72
2019-03-25T19:22:18.657Z,101698.88
2019-03-25T19:24:50.475Z,101699.83
2019-03-25T19:27:22.211Z,101712.25
2019-03-25T19:29:54.134Z,101712.41
2019-03-25T19:32:26.116Z,101715.02
2019-03-25T19:34:57.929Z,101723.13
2019-03-25T19:37:29.674Z,101721.33
2019-03-25T19:40:01.437Z,101731.39
2019-03-25T19:42:33.268Z,101735.70
2019-03-25T19:45:05.353Z,101740.93
2019-03-25T19:47:37.035Z,101738.05
2019-03-25T19:50:10.277Z,101746.16
2019-03-25T19:52:42.096Z,101751.89
2019-03-25T19:55:13.820Z,101752.81
2019-03-25T19:57:46.630Z,101763.16
2019-03-25T20:00:22.661Z,101769.15
2019-03-25T20:02:54.398Z,101769.15
2019-03-25T20:05:26.161Z,101772.19
2019-03-25T20:07:58.000Z,101780.41
2019-03-25T20:10:31.290Z,101784.33
2019-03-25T20:13:03.244Z,101789.02
2019-03-25T20:15:45.357Z,101793.25
2019-03-25T20:18:09.035Z,101798.32
2019-03-25T20:20:40.820Z,101802.66
2019-03-25T20:23:12.556Z,101803.81
2019-03-25T20:25:45.288Z,101819.38
2019-03-25T20:28:17.187Z,101817.33
2019-03-25T20:30:48.879Z,101820.20
2019-03-25T20:33:20.827Z,101828.55
2019-03-25T20:35:52.638Z,101828.55
2019-03-25T20:38:24.463Z,101836.01
2019-03-25T20:40:56.327Z,101834.16
2019-03-25T20:43:28.180Z,101841.62
2019-03-25T20:45:59.950Z,101846.08
2019-03-25T20:48:31.745Z,101853.92
2019-03-25T20:51:03.783Z,101864.88
2019-03-25T20:53:36.008Z,101861.46
2019-03-25T20:56:07.831Z,101864.88
2019-03-25T20:58:39.651Z,101869.59
2019-03-25T21:01:11.512Z,101871.03
2019-03-25T21:03:43.269Z,101869.86
2019-03-25T21:06:14.989Z,101878.47
2019-03-25T21:08:46.849Z,101870.39
2019-03-25T21:11:18.638Z,101868.70
2019-03-25T21:13:50.337Z,101872.62
2019-03-25T21:16:23.139Z,101868.28
2019-03-25T21:18:54.872Z,101877.42
2019-03-25T21:21:26.704Z,101882.27
2019-03-25T21:23:59.566Z,101886.31
2019-03-25T21:26:31.309Z,101887.50
2019-03-25T21:29:03.210Z,101897.15
2019-03-25T21:31:34.882Z,101899.38
2019-03-25T21:34:07.020Z,101901.99
2019-03-25T21:36:39.108Z,101903.17
2019-03-25T21:39:11.038Z,101917.17
2019-03-25T21:41:42.848Z,101922.91
2019-03-25T21:44:16.602Z,101924.33
2019-03-25T21:46:48.437Z,101925.26
2019-03-25T21:49:20.212Z,101927.10
2019-03-25T21:51:52.104Z,101925.80
2019-03-25T21:54:23.928Z,101924.61
2019-03-25T21:56:55.927Z,101936.50
2019-03-25T21:59:27.841Z,101939.11
2019-03-25T22:01:59.657Z,101945.40
2019-03-25T22:04:31.532Z,101945.78
2019-03-25T22:07:03.319Z,101946.55
2019-03-25T22:09:35.390Z,101949.58
2019-03-25T22:12:07.222Z,101952.96
2019-03-25T22:14:39.024Z,101964.72
2019-03-25T22:17:11.961Z,101959.25
2019-03-25T22:19:43.704Z,101971.12
2019-03-25T22:22:15.737Z,101968.13
2019-03-25T22:24:48.036Z,101978.59
2019-03-25T22:27:20.989Z,101973.23
2019-03-25T22:29:54.324Z,101978.47
2019-03-25T22:32:26.257Z,101987.20
2019-03-25T22:34:57.961Z,101981.97
2019-03-25T22:37:29.753Z,101985.13
2019-03-25T22:40:01.639Z,101989.43
2019-03-25T22:42:33.317Z,101993.22
2019-03-25T22:45:05.989Z,101995.97
2019-03-25T22:47:37.933Z,101999.34
2019-03-25T22:50:12.166Z,102000.41
2019-03-25T22:52:43.958Z,102003.28
2019-03-25T22:55:16.785Z,102007.83
2019-03-25T22:57:48.573Z,102008.63
2019-03-25T23:00:24.205Z,102013.86
2019-03-25T23:02:57.611Z,102019.75
2019-03-25T23:05:29.427Z,102021.70
2019-03-25T23:08:01.176Z,102023.51
2019-03-25T23:10:33.284Z,102032.15
2019-03-25T23:13:05.032Z,102033.58
2019-03-25T23:15:36.875Z,102041.80
2019-03-25T23:18:08.555Z,102037.00
2019-03-25T23:20:40.427Z,102042.22
2019-03-25T23:23:12.128Z,102043.91
2019-03-25T23:25:43.977Z,102043.40
2019-03-25T23:28:15.793Z,102043.23
2019-03-25T23:30:47.592Z,102043.91
2019-03-25T23:33:19.507Z,102047.03
2019-03-25T23:35:51.481Z,102045.19
2019-03-25T23:38:23.311Z,102046.36
2019-03-25T23:40:55.115Z,102041.55
2019-03-25T23:43:26.781Z,102037.77
2019-03-25T23:45:58.501Z,102043.63
2019-03-25T23:48:30.280Z,102047.80
2019-03-25T23:51:01.928Z,102048.05
2019-03-25T23:53:33.610Z,102066.20
2019-03-25T23:56:05.359Z,102061.10
2019-03-25T23:58:37.158Z,102069.19
